createdAt,value
2023-01-19T00:01:35.142Z,99401.56
2023-01-19T00:04:02.858Z,99399.69
2023-01-19T00:06:31.411Z,99400.72
2023-01-19T00:08:59.993Z,99391.31
2023-01-19T00:11:27.693Z,99389.44
2023-01-19T00:13:57.734Z,99399.06
2023-01-19T00:16:25.715Z,99399.06
2023-01-19T00:18:54.265Z,99400.38
2023-01-19T00:21:23.133Z,99410.88
2023-01-19T00:23:52.666Z,99415.50
2023-01-19T00:26:22.664Z,99420.22
2023-01-19T00:28:51.392Z,99420.53
2023-01-19T00:31:21.630Z,99432.78
2023-01-19T00:33:52.499Z,99417.78
2023-01-19T00:36:20.477Z,99432.78
2023-01-19T00:38:48.909Z,99443.34
2023-01-19T00:41:16.890Z,99434.56
2023-01-19T00:43:43.709Z,99440.72
2023-01-19T00:49:06.680Z,99439.16
2023-01-19T00:51:34.421Z,99445.03
2023-01-19T00:54:04.938Z,99444.06
2023-01-19T00:56:33.235Z,99433.34
2023-01-19T00:59:01.376Z,99434.09
2023-01-19T01:01:45.103Z,99431.59
2023-01-19T01:04:15.558Z,99435.88
2023-01-19T01:06:43.291Z,99438.50
2023-01-19T01:09:12.667Z,99434.69
2023-01-19T01:11:40.561Z,99431.25
2023-01-19T01:14:09.715Z,99440.44
2023-01-19T01:16:39.432Z,99436.44
2023-01-19T01:19:07.172Z,99450.50
2023-01-19T01:21:37.267Z,99445.88
2023-01-19T01:24:05.455Z,99441.47
2023-01-19T01:26:33.057Z,99441.34
2023-01-19T01:29:00.730Z,99452.06
2023-01-19T01:31:28.858Z,99445.66
2023-01-19T01:33:57.419Z,99452.84
2023-01-19T01:36:27.371Z,99449.59
2023-01-19T01:38:56.273Z,99447.72
2023-01-19T01:41:25.477Z,99435.13
2023-01-19T01:43:58.480Z,99442.03
2023-01-19T01:46:28.657Z,99434.28
2023-01-19T01:49:03.239Z,99433.22
2023-01-19T01:51:35.626Z,99426.00
2023-01-19T01:54:17.512Z,99422.88
2023-01-19T01:56:49.879Z,99436.47
2023-01-19T01:59:26.539Z,99424.53
2023-01-19T02:02:14.390Z,99434.06
2023-01-19T02:04:47.502Z,99432.78
2023-01-19T02:10:52.902Z,99426.00
2023-01-19T02:13:21.420Z,99434.78
2023-01-19T02:15:52.535Z,99421.66
2023-01-19T02:18:22.486Z,99423.25
2023-01-19T02:21:00.087Z,99425.09
2023-01-19T02:23:38.897Z,99431.25
2023-01-19T02:26:09.396Z,99426.75
2023-01-19T02:28:42.053Z,99424.84
2023-01-19T02:31:10.591Z,99426.63
2023-01-19T02:33:38.580Z,99430.34
2023-01-19T02:36:09.362Z,99435.97
2023-01-19T02:38:42.420Z,99439.53
2023-01-19T02:41:13.181Z,99436.66
2023-01-19T02:43:42.700Z,99426.19
2023-01-19T02:46:11.395Z,99421.19
2023-01-19T02:49:06.359Z,99427.53
2023-01-19T02:51:34.830Z,99426.69
2023-01-19T02:54:29.489Z,99421.66
2023-01-19T02:57:13.434Z,99421.56
2023-01-19T02:59:55.435Z,99417.97
2023-01-19T03:02:36.950Z,99417.25
2023-01-19T03:05:17.182Z,99416.81
2023-01-19T03:07:52.376Z,99414.53
2023-01-19T03:10:32.100Z,99413.34
2023-01-19T03:13:04.288Z,99418.69
2023-01-19T03:15:45.438Z,99416.56
2023-01-19T03:18:21.030Z,99416.69
2023-01-19T03:20:51.806Z,99413.00
2023-01-19T03:23:23.384Z,99416.56
2023-01-19T03:25:57.805Z,99413.75
2023-01-19T03:28:31.376Z,99408.50
2023-01-19T03:31:06.048Z,99407.28
2023-01-19T03:33:38.763Z,99405.88
2023-01-19T03:36:13.461Z,99409.31
2023-01-19T03:38:44.156Z,99407.16
2023-01-19T03:41:17.075Z,99399.38
2023-01-19T03:43:46.645Z,99405.75
2023-01-19T03:46:17.466Z,99399.16
2023-01-19T03:48:46.179Z,99403.59
2023-01-19T03:51:19.393Z,99412.50
2023-01-19T03:53:47.456Z,99415.56
2023-01-19T03:56:21.073Z,99405.59
2023-01-19T03:58:48.813Z,99404.75
2023-01-19T04:01:23.502Z,99410.72
2023-01-19T04:03:52.673Z,99409.41
2023-01-19T04:06:21.632Z,99405.38
2023-01-19T04:08:51.588Z,99412.75
2023-01-19T04:11:20.574Z,99408.22
2023-01-19T04:13:48.904Z,99415.03
2023-01-19T04:16:19.994Z,99417.78
2023-01-19T04:18:48.284Z,99415.13
2023-01-19T04:21:16.379Z,99416.06
2023-01-19T04:23:45.931Z,99418.69
2023-01-19T04:26:13.719Z,99416.44
2023-01-19T04:28:43.591Z,99406.91
2023-01-19T04:31:11.301Z,99408.81
2023-01-19T04:34:04.726Z,99399.53
2023-01-19T04:36:32.907Z,99397.13
2023-01-19T04:39:00.892Z,99391.00
2023-01-19T04:41:30.223Z,99393.59
2023-01-19T04:43:59.497Z,99396.31
2023-01-19T04:46:27.945Z,99394.28
2023-01-19T04:48:56.593Z,99394.03
2023-01-19T04:51:24.889Z,99398.47
2023-01-19T04:53:52.885Z,99393.31
2023-01-19T04:56:21.446Z,99401.09
2023-01-19T04:58:50.715Z,99398.34
2023-01-19T05:01:19.786Z,99395.56
2023-01-19T05:03:47.642Z,99397.47
2023-01-19T05:06:16.372Z,99393.06
2023-01-19T05:08:45.520Z,99394.22
2023-01-19T05:11:13.944Z,99392.69
2023-01-19T05:13:44.365Z,99396.47
2023-01-19T05:16:13.876Z,99397.16
2023-01-19T05:18:42.888Z,99405.03
2023-01-19T05:21:12.967Z,99393.06
2023-01-19T05:23:45.387Z,99400.88
2023-01-19T05:26:14.775Z,99397.44
2023-01-19T05:28:43.447Z,99403.63
2023-01-19T05:31:11.919Z,99412.38
2023-01-19T05:33:39.595Z,99400.00
2023-01-19T05:36:08.919Z,99402.34
2023-01-19T05:38:36.566Z,99408.50
2023-01-19T05:41:04.261Z,99406.25
2023-01-19T05:43:32.097Z,99411.47
2023-01-19T05:45:59.861Z,99410.13
2023-01-19T05:48:27.468Z,99408.09
2023-01-19T05:50:58.818Z,99410.84
2023-01-19T05:53:28.553Z,99409.06
2023-01-19T05:56:00.789Z,99415.47
2023-01-19T05:58:29.358Z,99420.09
2023-01-19T06:00:56.993Z,99420.53
2023-01-19T06:03:25.266Z,99419.34
2023-01-19T06:05:52.840Z,99420.22
2023-01-19T06:08:20.533Z,99422.47
2023-01-19T06:10:49.493Z,99419.53
2023-01-19T06:13:17.348Z,99416.13
2023-01-19T06:15:45.107Z,99419.56
2023-01-19T06:18:14.359Z,99414.84
2023-01-19T06:20:42.437Z,99415.41
2023-01-19T06:23:10.506Z,99426.72
2023-01-19T06:25:38.167Z,99433.50
2023-01-19T06:28:07.233Z,99433.38
2023-01-19T06:30:34.850Z,99440.66
2023-01-19T06:33:03.538Z,99445.13
2023-01-19T06:35:31.235Z,99456.38
2023-01-19T06:38:00.376Z,99453.94
2023-01-19T06:40:28.026Z,99454.06
2023-01-19T06:42:55.579Z,99453.63
2023-01-19T06:45:24.497Z,99461.78
2023-01-19T06:47:52.465Z,99456.78
2023-01-19T06:50:20.044Z,99461.41
2023-01-19T06:52:51.436Z,99463.69
2023-01-19T06:55:19.166Z,99456.28
2023-01-19T06:57:47.334Z,99461.50
2023-01-19T07:00:16.332Z,99467.47
2023-01-19T07:02:45.303Z,99461.09
2023-01-19T07:05:14.624Z,99467.47
2023-01-19T07:07:43.108Z,99472.81
2023-01-19T07:10:14.354Z,99469.97
2023-01-19T07:12:42.379Z,99464.25
2023-01-19T07:15:35.009Z,99471.22
2023-01-19T07:18:07.515Z,99470.91
2023-01-19T07:20:37.635Z,99478.78
2023-01-19T07:23:05.860Z,99471.88
2023-01-19T07:25:35.384Z,99473.53
2023-01-19T07:28:04.384Z,99478.88
2023-01-19T07:33:29.800Z,99493.66
2023-01-19T07:35:58.533Z,99486.84
2023-01-19T07:38:27.452Z,99493.13
2023-01-19T07:41:01.790Z,99497.09
2023-01-19T07:43:29.380Z,99501.94
2023-01-19T07:45:57.605Z,99507.16
2023-01-19T07:48:25.206Z,99505.38
2023-01-19T07:50:54.574Z,99517.44
2023-01-19T07:53:22.387Z,99520.25
2023-01-19T07:55:56.356Z,99521.09
2023-01-19T07:58:25.204Z,99521.84
2023-01-19T08:00:53.500Z,99533.34
2023-01-19T08:03:21.843Z,99530.00
2023-01-19T08:05:51.647Z,99536.59
2023-01-19T08:08:20.833Z,99549.91
2023-01-19T08:11:13.670Z,99553.25
2023-01-19T08:13:42.355Z,99563.00
2023-01-19T08:16:10.779Z,99560.91
2023-01-19T08:18:38.477Z,99565.31
2023-01-19T08:21:06.541Z,99578.50
2023-01-19T08:23:36.380Z,99583.44
2023-01-19T08:26:18.925Z,99583.31
2023-01-19T08:28:48.120Z,99586.88
2023-01-19T08:31:21.025Z,99589.16
2023-01-19T08:33:49.441Z,99594.53
2023-01-19T08:36:18.765Z,99603.75
2023-01-19T08:38:48.432Z,99606.91
2023-01-19T08:41:16.973Z,99610.53
2023-01-19T08:43:45.356Z,99618.63
2023-01-19T08:46:18.445Z,99626.38
2023-01-19T08:48:48.079Z,99627.13
2023-01-19T08:51:16.446Z,99633.94
2023-01-19T08:53:44.226Z,99637.06
2023-01-19T08:56:14.426Z,99635.28
2023-01-19T08:58:43.625Z,99641.19
2023-01-19T09:01:14.895Z,99645.66
2023-01-19T09:03:42.600Z,99654.16
2023-01-19T09:06:13.034Z,99654.69
2023-01-19T09:08:41.481Z,99662.56
2023-01-19T09:11:12.149Z,99666.72
2023-01-19T09:13:43.553Z,99670.19
2023-01-19T09:16:13.261Z,99670.59
2023-01-19T09:18:41.086Z,99682.69
2023-01-19T09:21:10.086Z,99693.16
2023-01-19T09:23:38.136Z,99692.75
2023-01-19T09:26:07.213Z,99697.16
2023-01-19T09:28:35.332Z,99688.63
2023-01-19T09:31:07.916Z,99701.75
2023-01-19T09:33:37.555Z,99708.25
2023-01-19T09:36:08.378Z,99704.91
2023-01-19T09:38:35.884Z,99704.06
2023-01-19T09:41:04.457Z,99709.91
2023-01-19T09:43:40.718Z,99717.59
2023-01-19T09:46:15.947Z,99720.63
2023-01-19T09:48:47.716Z,99721.03
2023-01-19T09:51:19.843Z,99729.22
2023-01-19T09:53:57.878Z,99737.84
2023-01-19T09:56:26.363Z,99739.69
2023-01-19T09:58:57.437Z,99739.91
2023-01-19T10:01:48.421Z,99742.31
2023-01-19T10:04:43.382Z,99745.03
2023-01-19T10:07:24.449Z,99750.00
2023-01-19T10:10:07.428Z,99750.09
2023-01-19T10:12:44.542Z,99752.19
2023-01-19T10:15:25.387Z,99760.16
2023-01-19T10:18:08.476Z,99764.47
2023-01-19T10:20:39.818Z,99761.72
2023-01-19T10:23:22.839Z,99761.72
2023-01-19T10:25:53.058Z,99772.44
2023-01-19T10:28:24.947Z,99773.28
2023-01-19T10:30:55.063Z,99775.06
2023-01-19T10:33:24.392Z,99774.84
2023-01-19T10:35:51.992Z,99782.09
2023-01-19T10:38:22.437Z,99783.78
2023-01-19T10:40:57.426Z,99782.94
2023-01-19T10:43:42.375Z,99782.09
2023-01-19T10:46:22.482Z,99790.56
2023-01-19T10:48:54.388Z,99792.38
2023-01-19T10:51:24.362Z,99794.78
2023-01-19T10:53:57.856Z,99796.66
2023-01-19T10:56:28.356Z,99794.69
2023-01-19T10:58:56.385Z,99800.56
2023-01-19T11:01:25.563Z,99803.38
2023-01-19T11:03:57.132Z,99803.06
2023-01-19T11:06:29.920Z,99805.81
2023-01-19T11:09:13.399Z,99802.25
2023-01-19T11:11:44.431Z,99808.03
2023-01-19T11:14:14.859Z,99811.56
2023-01-19T11:16:48.392Z,99804.56
2023-01-19T11:19:22.546Z,99806.00
2023-01-19T11:21:50.181Z,99806.75
2023-01-19T11:24:18.547Z,99807.69
2023-01-19T11:26:49.014Z,99803.28
2023-01-19T11:29:21.437Z,99806.75
2023-01-19T11:31:57.527Z,99807.28
2023-01-19T11:34:33.386Z,99803.78
2023-01-19T11:37:05.317Z,99803.38
2023-01-19T11:39:47.330Z,99802.63
2023-01-19T11:42:16.370Z,99803.03
2023-01-19T11:44:48.414Z,99808.22
2023-01-19T11:47:24.548Z,99805.34
2023-01-19T11:50:07.430Z,99807.03
2023-01-19T11:52:42.947Z,99812.28
2023-01-19T11:55:20.682Z,99817.84
2023-01-19T11:57:51.516Z,99813.63
2023-01-19T12:00:28.618Z,99816.06
2023-01-19T12:03:05.483Z,99811.75
2023-01-19T12:05:36.382Z,99820.34
2023-01-19T12:08:07.709Z,99826.22
2023-01-19T12:10:41.496Z,99814.16
2023-01-19T12:13:21.241Z,99824.53
2023-01-19T12:15:51.667Z,99824.53
2023-01-19T12:18:23.363Z,99834.59
2023-01-19T12:20:58.695Z,99822.84
2023-01-19T12:23:38.731Z,99824.03
2023-01-19T12:26:27.836Z,99827.66
2023-01-19T12:28:58.601Z,99820.97
2023-01-19T12:31:26.583Z,99827.88
2023-01-19T12:33:54.402Z,99825.88
2023-01-19T12:36:40.335Z,99840.47
2023-01-19T12:39:18.635Z,99841.31
2023-01-19T12:41:47.145Z,99841.94
2023-01-19T12:44:23.244Z,99843.50
2023-01-19T12:46:57.223Z,99845.16
2023-01-19T12:49:33.457Z,99844.69
2023-01-19T12:52:27.962Z,99845.06
2023-01-19T12:55:01.414Z,99856.75
2023-01-19T12:57:34.170Z,99848.63
2023-01-19T13:00:04.416Z,99849.81
2023-01-19T13:02:51.952Z,99853.88
2023-01-19T13:05:59.418Z,99847.72
2023-01-19T13:08:51.409Z,99849.25
2023-01-19T13:11:24.330Z,99852.00
2023-01-19T13:14:35.506Z,99851.56
2023-01-19T13:17:10.374Z,99857.78
2023-01-19T13:20:13.037Z,99866.19
2023-01-19T13:23:21.536Z,99860.91
2023-01-19T13:25:54.619Z,99861.63
2023-01-19T13:28:31.292Z,99860.69
2023-01-19T13:31:02.478Z,99860.56
2023-01-19T13:33:35.043Z,99875.28
2023-01-19T13:36:06.416Z,99868.13
2023-01-19T13:38:34.226Z,99868.00
2023-01-19T13:41:03.757Z,99872.31
2023-01-19T13:43:39.743Z,99878.97
2023-01-19T13:46:07.717Z,99876.44
2023-01-19T13:48:35.601Z,99878.25
2023-01-19T13:51:05.602Z,99878.00
2023-01-19T13:53:34.123Z,99882.66
2023-01-19T13:56:10.728Z,99889.19
2023-01-19T13:58:39.621Z,99889.31
2023-01-19T14:01:20.901Z,99894.03
2023-01-19T14:03:52.157Z,99892.25
2023-01-19T14:06:30.337Z,99893.28
2023-01-19T14:09:23.512Z,99898.75
2023-01-19T14:12:05.955Z,99889.41
2023-01-19T14:14:35.340Z,99899.91
2023-01-19T14:17:02.966Z,99901.09
2023-01-19T14:19:30.627Z,99900.03
2023-01-19T14:22:00.377Z,99904.03
2023-01-19T14:24:32.371Z,99915.38
2023-01-19T14:27:14.186Z,99913.19
2023-01-19T14:29:44.308Z,99919.38
2023-01-19T14:32:17.104Z,99917.72
2023-01-19T14:34:50.422Z,99922.09
2023-01-19T14:37:24.245Z,99923.03
2023-01-19T14:39:56.375Z,99927.16
2023-01-19T14:42:28.539Z,99929.97
2023-01-19T14:45:05.910Z,99934.50
2023-01-19T14:47:38.075Z,99938.06
2023-01-19T14:50:24.357Z,99946.06
2023-01-19T14:52:57.226Z,99950.38
2023-01-19T14:55:29.447Z,99950.38
2023-01-19T14:58:01.062Z,99947.22
2023-01-19T15:00:30.444Z,99953.53
2023-01-19T15:02:58.857Z,99957.06
2023-01-19T15:05:30.417Z,99960.63
2023-01-19T15:07:59.306Z,99958.84
2023-01-19T15:10:28.389Z,99965.69
2023-01-19T15:12:56.811Z,99957.81
2023-01-19T15:15:29.280Z,99958.97
2023-01-19T15:18:01.984Z,99966.13
2023-01-19T15:20:29.679Z,99972.09
2023-01-19T15:22:57.432Z,99967.25
2023-01-19T15:25:26.644Z,99969.16
2023-01-19T15:27:58.128Z,99972.69
2023-01-19T15:30:29.602Z,99975.66
2023-01-19T15:32:58.867Z,99975.25
2023-01-19T15:35:27.936Z,99978.28
2023-01-19T15:37:55.746Z,99973.97
2023-01-19T15:40:23.367Z,99980.06
2023-01-19T15:42:51.677Z,99984.13
2023-01-19T15:45:38.392Z,99982.34
2023-01-19T15:48:07.411Z,99984.97
2023-01-19T15:50:38.432Z,99989.59
2023-01-19T15:53:07.260Z,99990.44
2023-01-19T15:55:34.933Z,99996.94
2023-01-19T15:58:04.419Z,99998.63
2023-01-19T16:00:35.135Z,100000.53
2023-01-19T16:03:04.202Z,100000.59
2023-01-19T16:05:42.536Z,100008.47
2023-01-19T16:08:13.452Z,100012.81
2023-01-19T16:10:41.584Z,100004.94
2023-01-19T16:13:09.487Z,100013.63
2023-01-19T16:15:37.931Z,100015.31
2023-01-19T16:18:06.465Z,100018.88
2023-01-19T16:20:34.386Z,100018.88
2023-01-19T16:23:14.817Z,100021.50
2023-01-19T16:25:44.711Z,100021.50
2023-01-19T16:28:12.395Z,100023.28
2023-01-19T16:30:40.046Z,100021.59
2023-01-19T16:33:08.328Z,100025.91
2023-01-19T16:35:36.051Z,100025.09
2023-01-19T16:38:03.951Z,100030.41
2023-01-19T16:40:31.626Z,100028.84
2023-01-19T16:43:00.534Z,100030.63
2023-01-19T16:45:28.211Z,100040.28
2023-01-19T16:47:57.465Z,100035.22
2023-01-19T16:50:25.025Z,100038.78
2023-01-19T16:52:57.460Z,100039.84
2023-01-19T16:55:25.268Z,100036.38
2023-01-19T16:57:53.454Z,100045.50
2023-01-19T17:00:22.792Z,100045.69
2023-01-19T17:02:50.348Z,100054.59
2023-01-19T17:05:18.782Z,100049.66
2023-01-19T17:07:46.409Z,100049.75
2023-01-19T17:10:14.136Z,100057.06
2023-01-19T17:12:42.438Z,100058.94
2023-01-19T17:15:11.549Z,100064.38
2023-01-19T17:17:40.481Z,100062.03
2023-01-19T17:20:10.863Z,100075.25
2023-01-19T17:22:38.650Z,100071.03
2023-01-19T17:25:07.320Z,100075.44
2023-01-19T17:27:37.401Z,100082.56
2023-01-19T17:30:05.765Z,100090.63
2023-01-19T17:32:33.457Z,100088.09
2023-01-19T17:35:02.361Z,100093.44
2023-01-19T17:37:29.981Z,100102.34
2023-01-19T17:39:57.556Z,100098.03
2023-01-19T17:42:25.272Z,100099.81
2023-01-19T17:44:52.870Z,100107.66
2023-01-19T17:47:25.372Z,100105.16
2023-01-19T17:49:54.412Z,100108.72
2023-01-19T17:52:24.211Z,100110.50
2023-01-19T17:54:52.430Z,100104.47
2023-01-19T17:57:20.042Z,100117.59
2023-01-19T17:59:48.458Z,100114.97
2023-01-19T18:02:16.257Z,100115.19
2023-01-19T18:04:44.041Z,100122.31
2023-01-19T18:07:11.671Z,100117.91
2023-01-19T18:09:40.571Z,100123.22
2023-01-19T18:12:08.416Z,100119.13
2023-01-19T18:14:35.966Z,100118.44
2023-01-19T18:17:03.637Z,100126.53
2023-01-19T18:19:31.150Z,100120.50
2023-01-19T18:21:58.809Z,100131.09
2023-01-19T18:24:26.560Z,100132.19
2023-01-19T18:26:55.876Z,100127.81
2023-01-19T18:29:25.374Z,100126.50
2023-01-19T18:31:53.087Z,100125.75
2023-01-19T18:34:20.871Z,100127.59
2023-01-19T18:36:48.524Z,100128.53
2023-01-19T18:39:16.095Z,100133.03
2023-01-19T18:41:43.648Z,100133.88
2023-01-19T18:44:13.395Z,100130.41
2023-01-19T18:46:41.545Z,100139.22
2023-01-19T18:49:09.595Z,100139.22
2023-01-19T18:51:39.401Z,100145.41
2023-01-19T18:54:08.352Z,100138.38
2023-01-19T18:56:35.983Z,100140.16
2023-01-19T18:59:04.919Z,100148.94
2023-01-19T19:01:34.975Z,100145.41
2023-01-19T19:04:03.502Z,100147.06
2023-01-19T19:06:31.245Z,100148.94
2023-01-19T19:08:59.645Z,100153.25
2023-01-19T19:11:27.940Z,100155.88
2023-01-19T19:13:58.439Z,100154.09
2023-01-19T19:16:26.033Z,100162.69
2023-01-19T19:18:56.545Z,100164.28
2023-01-19T19:21:25.622Z,100159.97
2023-01-19T19:23:55.092Z,100161.50
2023-01-19T19:26:23.470Z,100164.00
2023-01-19T19:28:51.344Z,100168.50
2023-01-19T19:31:21.656Z,100169.34
2023-01-19T19:33:50.805Z,100177.97
2023-01-19T19:36:20.819Z,100174.44
2023-01-19T19:38:48.876Z,100179.66
2023-01-19T19:41:19.198Z,100183.78
2023-01-19T19:43:47.124Z,100185.66
2023-01-19T19:46:16.891Z,100190.78
2023-01-19T19:48:44.473Z,100195.09
2023-01-19T19:51:19.429Z,100193.03
2023-01-19T19:53:51.404Z,100194.25
2023-01-19T19:56:20.796Z,100187.31
2023-01-19T19:58:48.844Z,100193.25
2023-01-19T20:01:20.086Z,100190.69
2023-01-19T20:03:47.953Z,100197.66
2023-01-19T20:06:20.510Z,100193.16
2023-01-19T20:08:50.518Z,100191.47
2023-01-19T20:11:21.309Z,100192.41
2023-01-19T20:13:49.195Z,100191.47
2023-01-19T20:16:18.983Z,100197.72
2023-01-19T20:18:50.993Z,100195.19
2023-01-19T20:21:19.673Z,100197.06
2023-01-19T20:23:50.422Z,100196.28
2023-01-19T20:26:20.373Z,100201.72
2023-01-19T20:28:48.560Z,100201.84
2023-01-19T20:31:19.431Z,100205.47
2023-01-19T20:33:48.385Z,100206.41
2023-01-19T20:36:16.340Z,100210.78
2023-01-19T20:38:44.283Z,100209.94
2023-01-19T20:41:17.361Z,100212.00
2023-01-19T20:43:45.342Z,100226.69
2023-01-19T20:46:13.008Z,100224.16
2023-01-19T20:48:41.506Z,100232.13
2023-01-19T20:51:11.958Z,100233.06
2023-01-19T20:53:41.847Z,100235.56
2023-01-19T20:56:12.969Z,100233.88
2023-01-19T20:58:43.356Z,100240.91
2023-01-19T21:01:13.533Z,100240.97
2023-01-19T21:03:41.880Z,100237.50
2023-01-19T21:06:09.661Z,100246.22
2023-01-19T21:08:38.215Z,100248.09
2023-01-19T21:11:07.369Z,100251.44
2023-01-19T21:13:35.746Z,100262.13
2023-01-19T21:16:05.279Z,100269.97
2023-01-19T21:18:33.816Z,100260.34
2023-01-19T21:21:01.430Z,100259.41
2023-01-19T21:23:29.422Z,100266.44
2023-01-19T21:25:58.978Z,100273.44
2023-01-19T21:28:28.082Z,100270.34
2023-01-19T21:30:56.539Z,100273.94
2023-01-19T21:33:25.874Z,100275.72
2023-01-19T21:35:54.672Z,100275.72
2023-01-19T21:38:23.409Z,100282.75
2023-01-19T21:40:51.132Z,100294.06
2023-01-19T21:43:19.868Z,100287.81
2023-01-19T21:45:49.396Z,100295.00
2023-01-19T21:48:44.117Z,100294.06
2023-01-19T21:51:11.723Z,100298.72
2023-01-19T21:53:39.467Z,100301.31
2023-01-19T21:56:08.879Z,100299.66
2023-01-19T21:58:36.460Z,100300.50
2023-01-19T22:01:06.437Z,100304.88
2023-01-19T22:03:34.198Z,100304.81
2023-01-19T22:06:06.150Z,100306.56
2023-01-19T22:08:33.754Z,100309.28
2023-01-19T22:11:05.254Z,100316.13
2023-01-19T22:13:34.409Z,100323.81
2023-01-19T22:16:02.699Z,100321.28
2023-01-19T22:18:31.323Z,100322.88
2023-01-19T22:21:10.391Z,100326.28
2023-01-19T22:23:38.448Z,100326.19
2023-01-19T22:26:07.908Z,100324.31
2023-01-19T22:28:36.440Z,100331.16
2023-01-19T22:31:06.112Z,100334.53
2023-01-19T22:33:34.322Z,100329.19
2023-01-19T22:36:16.147Z,100326.50
2023-01-19T22:38:44.360Z,100333.44
2023-01-19T22:41:13.694Z,100328.09
2023-01-19T22:43:43.092Z,100329.69
2023-01-19T22:46:11.394Z,100334.03
2023-01-19T22:48:40.310Z,100324.28
2023-01-19T22:51:08.096Z,100322.25
2023-01-19T22:53:37.131Z,100338.91
2023-01-19T22:56:13.796Z,100339.75
2023-01-19T22:58:44.134Z,100338.72
2023-01-19T23:01:14.470Z,100336.94
2023-01-19T23:03:42.785Z,100335.00
2023-01-19T23:06:12.312Z,100342.69
2023-01-19T23:08:42.127Z,100343.63
2023-01-19T23:11:12.661Z,100342.63
2023-01-19T23:13:40.906Z,100339.91
2023-01-19T23:16:09.961Z,100344.22
2023-01-19T23:18:37.817Z,100344.13
2023-01-19T23:21:07.295Z,100346.94
2023-01-19T23:23:35.817Z,100336.44
2023-01-19T23:26:06.958Z,100345.06
2023-01-19T23:28:34.930Z,100348.41
2023-01-19T23:31:14.175Z,100356.13
2023-01-19T23:33:43.921Z,100364.72
2023-01-19T23:36:12.385Z,100369.63
2023-01-19T23:38:40.733Z,100367.09
2023-01-19T23:41:09.938Z,100361.09
2023-01-19T23:47:22.650Z,100373.38
2023-01-19T23:49:50.507Z,100376.06
2023-01-19T23:52:18.147Z,100376.06
2023-01-19T23:54:45.876Z,100374.38
2023-01-19T23:57:14.775Z,100379.34
2023-01-19T23:59:42.536Z,100382.06
